Time;durP1;ratioP1;P1;durP2;ratioP2;P2;SDS_P1;SDS_P2;PMS_P1;PMS_P2;Temp;Humidity;BMP_temperature;BMP_pressure;BME280_temperature;BME280_humidity;BME280_pressure;Samples;Min_cycle;Max_cycle;Signal;HPM_P1;HPM_P2
2022/03/06 00:00:56;;;;;;;0.93;0.93;;;-0.20;99.90;;;;;;5114963;28;20203;-74
2022/03/06 00:03:21;;;;;;;4.50;1.90;;;-0.30;99.90;;;;;;5114527;28;20262;-73
2022/03/06 00:05:48;;;;;;;0.80;0.80;;;-0.30;99.90;;;;;;5114628;28;20266;-74
2022/03/06 00:08:13;;;;;;;5.30;1.80;;;-0.30;99.90;;;;;;5114343;28;20186;-75
2022/03/06 00:10:39;;;;;;;3.80;2.53;;;-0.40;99.90;;;;;;5114536;28;20195;-73
2022/03/06 00:13:04;;;;;;;1.30;1.27;;;-0.40;99.90;;;;;;5114159;28;20182;-73
2022/03/06 00:15:30;;;;;;;4.73;4.30;;;-0.50;99.90;;;;;;5114569;28;20202;-73
2022/03/06 00:17:55;;;;;;;6.63;2.27;;;-0.60;99.90;;;;;;5114497;28;20175;-73
2022/03/06 00:20:22;;;;;;;1.50;1.50;;;-0.80;99.90;;;;;;5096399;28;20172;-74
2022/03/06 00:22:47;;;;;;;1.50;1.33;;;-0.90;99.90;;;;;;5095502;28;20171;-74
2022/03/06 00:25:13;;;;;;;0.93;0.93;;;-1.00;99.90;;;;;;5114771;28;20279;-73
2022/03/06 00:27:38;;;;;;;0.83;0.83;;;-1.00;99.90;;;;;;5114400;28;20662;-74
2022/03/06 00:30:06;;;;;;;3.17;3.07;;;-0.90;99.90;;;;;;5095849;28;20209;-73
2022/03/06 00:32:31;;;;;;;1.90;1.80;;;-0.80;99.90;;;;;;5113699;28;20218;-73
2022/03/06 00:34:57;;;;;;;1.73;1.73;;;-0.80;99.90;;;;;;5114079;28;20195;-74
2022/03/06 00:37:22;;;;;;;1.83;1.73;;;-0.80;99.90;;;;;;5113866;28;20535;-73
2022/03/06 00:39:48;;;;;;;1.73;1.63;;;-0.80;99.90;;;;;;5114153;28;20232;-73
2022/03/06 00:42:14;;;;;;;1.80;1.70;;;-0.80;99.90;;;;;;5113698;28;20614;-74
2022/03/06 00:44:39;;;;;;;0.67;0.67;;;-0.70;99.90;;;;;;5114105;28;20190;-73
2022/03/06 00:47:05;;;;;;;1.23;1.20;;;-0.70;99.90;;;;;;5114106;28;20697;-73
2022/03/06 00:49:32;;;;;;;1.03;1.03;;;-0.70;99.90;;;;;;5097442;28;20175;-73
2022/03/06 00:51:58;;;;;;;1.23;0.60;;;-0.70;99.90;;;;;;5114646;28;20608;-73
2022/03/06 00:54:24;;;;;;;11.97;4.83;;;-0.80;99.90;;;;;;5113747;28;20206;-73
2022/03/06 00:56:49;;;;;;;2.53;2.33;;;-0.80;99.90;;;;;;5113920;28;20171;-73
2022/03/06 00:59:15;;;;;;;1.57;1.47;;;-0.70;99.90;;;;;;5098661;28;20167;-73
2022/03/06 01:01:41;;;;;;;0.67;0.67;;;-0.80;99.90;;;;;;5101907;28;20686;-73
2022/03/06 01:04:07;;;;;;;0.80;0.80;;;-0.80;99.90;;;;;;5113440;28;20783;-74
2022/03/06 01:06:33;;;;;;;0.60;0.57;;;-0.80;99.90;;;;;;5113903;28;20201;-73
2022/03/06 01:08:59;;;;;;;11.13;2.10;;;-0.80;99.90;;;;;;5114074;28;20645;-71
2022/03/06 01:11:24;;;;;;;1.63;1.57;;;-0.90;99.90;;;;;;5113150;28;20207;-74
2022/03/06 01:13:50;;;;;;;1.17;0.80;;;-0.90;99.90;;;;;;5113276;28;20191;-73
2022/03/06 01:16:16;;;;;;;1.43;1.43;;;-1.00;99.90;;;;;;5113304;28;20167;-73
2022/03/06 01:18:42;;;;;;;2.27;1.80;;;-1.10;99.90;;;;;;5113146;28;20179;-74
2022/03/06 01:21:07;;;;;;;0.10;0.10;;;-1.20;99.90;;;;;;5113074;28;20191;-73
2022/03/06 01:23:35;;;;;;;4.23;2.47;;;-1.20;99.90;;;;;;5113049;28;20229;-73
2022/03/06 01:26:01;;;;;;;2.37;2.27;;;-1.20;99.90;;;;;;5113271;28;20178;-75
2022/03/06 01:28:26;;;;;;;0.67;0.67;;;-1.20;99.90;;;;;;5094732;28;20183;-73
2022/03/06 01:30:52;;;;;;;0.67;0.67;;;-1.30;99.90;;;;;;5133720;22;20221;-76
2022/03/06 01:33:17;;;;;;;0.77;0.77;;;-1.30;99.90;;;;;;5091098;28;20264;-73
2022/03/06 01:35:43;;;;;;;5.83;2.73;;;-1.40;99.90;;;;;;5092082;28;20180;-73
2022/03/06 01:38:08;;;;;;;0.80;0.70;;;-1.40;99.90;;;;;;5092441;28;20190;-73
2022/03/06 01:40:34;;;;;;;4.90;1.23;;;-1.40;99.90;;;;;;5092207;28;20180;-72
2022/03/06 01:43:00;;;;;;;0.87;0.77;;;-1.40;99.90;;;;;;5091977;28;20200;-73
2022/03/06 01:45:25;;;;;;;0.50;0.50;;;-1.40;99.90;;;;;;5092201;28;20186;-72
2022/03/06 01:47:53;;;;;;;0.33;0.33;;;-1.40;99.90;;;;;;5074119;28;20184;-73
2022/03/06 01:50:25;;;;;;;1.77;1.67;;;-1.40;99.90;;;;;;5092508;28;20192;-73
2022/03/06 01:52:52;;;;;;;1.17;1.17;;;-1.50;99.90;;;;;;5073739;28;20207;-72
2022/03/06 01:55:20;;;;;;;0.73;0.73;;;-1.60;99.90;;;;;;5092093;28;20212;-73
2022/03/06 01:57:46;;;;;;;1.33;1.33;;;-1.60;99.90;;;;;;5092000;28;20182;-74
2022/03/06 02:00:19;;;;;;;0.20;0.20;;;-1.60;99.90;;;;;;5059133;28;20180;-75
2022/03/06 02:02:45;;;;;;;0.67;0.67;;;-1.60;99.90;;;;;;5071368;28;20242;-74
2022/03/06 02:05:12;;;;;;;2.50;2.40;;;-1.50;99.90;;;;;;5071645;28;20177;-74
2022/03/06 02:07:38;;;;;;;0.97;0.83;;;-1.50;99.90;;;;;;5071580;28;20180;-75
2022/03/06 02:10:05;;;;;;;1.47;1.43;;;-1.50;99.90;;;;;;5071385;28;20194;-75
2022/03/06 02:12:31;;;;;;;1.87;1.47;;;-1.50;99.90;;;;;;5071011;28;20571;-75
2022/03/06 02:15:02;;;;;;;0.40;0.40;;;-1.50;99.90;;;;;;5071233;28;20667;-74
2022/03/06 02:17:28;;;;;;;4.30;1.50;;;-1.40;99.90;;;;;;5071652;28;20186;-74
2022/03/06 02:20:02;;;;;;;1.80;1.60;;;-1.30;99.90;;;;;;5071478;28;20596;-75
2022/03/06 02:22:30;;;;;;;1.07;1.07;;;-1.30;99.90;;;;;;5071111;28;20708;-75
2022/03/06 02:24:57;;;;;;;1.33;1.33;;;-1.30;99.90;;;;;;5053254;28;20184;-75
2022/03/06 02:27:24;;;;;;;0.63;0.63;;;-1.20;99.90;;;;;;5070772;28;20616;-75
2022/03/06 02:29:49;;;;;;;0.70;0.70;;;-1.20;99.90;;;;;;5071287;28;20226;-75
2022/03/06 02:32:18;;;;;;;0.40;0.40;;;-1.20;99.90;;;;;;5070857;28;20699;-75
2022/03/06 02:34:45;;;;;;;0.67;0.67;;;-1.20;99.90;;;;;;5053112;28;20729;-75
2022/03/06 02:37:12;;;;;;;0.47;0.47;;;-1.20;99.90;;;;;;5071339;28;20172;-75
2022/03/06 02:39:37;;;;;;;1.13;1.13;;;-1.20;99.90;;;;;;5070912;28;20176;-75
2022/03/06 02:42:04;;;;;;;0.63;0.63;;;-1.30;99.90;;;;;;5070899;28;20329;-75
2022/03/06 02:44:30;;;;;;;0.60;0.50;;;-1.40;99.90;;;;;;5071204;28;20184;-75
2022/03/06 02:46:56;;;;;;;0.90;0.90;;;-1.50;99.90;;;;;;5071057;28;20184;-76
2022/03/06 02:49:22;;;;;;;0.10;0.10;;;-1.50;99.90;;;;;;5071034;28;20184;-75
2022/03/06 02:51:48;;;;;;;1.57;1.47;;;-1.40;99.90;;;;;;5070832;28;20200;-75
2022/03/06 02:54:20;;;;;;;2.20;1.47;;;-1.40;99.90;;;;;;5070783;28;20203;-75
2022/03/06 02:56:46;;;;;;;1.23;1.23;;;-1.40;99.90;;;;;;5071116;28;20176;-75
2022/03/06 02:59:12;;;;;;;0.63;0.63;;;-1.40;99.90;;;;;;5071015;28;20504;-75
2022/03/06 03:01:41;;;;;;;1.37;0.60;;;-1.40;99.90;;;;;;5071070;28;20211;-75
2022/03/06 03:04:08;;;;;;;1.30;0.57;;;-1.50;99.90;;;;;;5070993;28;20182;-73
2022/03/06 03:06:34;;;;;;;1.70;1.53;;;-1.60;99.90;;;;;;5070744;28;20172;-73
2022/03/06 03:09:00;;;;;;;1.37;1.27;;;-1.80;99.90;;;;;;5070939;28;20673;-73
2022/03/06 03:11:25;;;;;;;5.00;1.00;;;-1.80;99.90;;;;;;5070517;28;20275;-73
2022/03/06 03:13:51;;;;;;;0.60;0.47;;;-1.80;99.90;;;;;;5070786;28;20794;-75
2022/03/06 03:16:17;;;;;;;0.80;0.80;;;-1.90;99.90;;;;;;5070851;28;20165;-74
2022/03/06 03:18:43;;;;;;;1.53;1.43;;;-1.90;99.90;;;;;;5070943;28;20185;-74
2022/03/06 03:21:08;;;;;;;0.13;0.13;;;-1.80;99.90;;;;;;5053030;28;20196;-74
2022/03/06 03:23:34;;;;;;;0.30;0.30;;;-1.70;99.90;;;;;;5070369;28;20199;-73
2022/03/06 03:25:59;;;;;;;0.70;0.70;;;-1.70;99.90;;;;;;5070875;28;20197;-73
2022/03/06 03:28:25;;;;;;;0.10;0.10;;;-1.70;99.90;;;;;;5070544;28;20230;-73
2022/03/06 03:30:50;;;;;;;0.93;0.93;;;-1.70;99.90;;;;;;5070411;28;20176;-73
2022/03/06 03:33:16;;;;;;;1.13;1.03;;;-1.70;99.90;;;;;;5070449;28;20234;-74
2022/03/06 03:35:41;;;;;;;0.40;0.40;;;-1.70;99.90;;;;;;5070523;28;20250;-74
2022/03/06 03:38:07;;;;;;;1.73;1.63;;;-1.70;99.90;;;;;;5070516;28;20199;-75
2022/03/06 03:40:33;;;;;;;0.83;0.50;;;-1.70;99.90;;;;;;5073617;28;20184;-76
2022/03/06 03:42:58;;;;;;;0.60;0.60;;;-1.70;99.90;;;;;;5074121;28;20196;-75
2022/03/06 03:45:24;;;;;;;0.57;0.43;;;-1.70;99.90;;;;;;5074356;28;20180;-75
2022/03/06 03:47:49;;;;;;;0.73;0.73;;;-1.70;99.90;;;;;;5056255;28;20184;-75
2022/03/06 03:50:15;;;;;;;1.80;1.40;;;-1.70;99.90;;;;;;5074243;28;20238;-75
2022/03/06 03:52:40;;;;;;;13.80;2.00;;;-1.60;99.90;;;;;;5073494;28;20305;-75
2022/03/06 03:55:06;;;;;;;1.87;1.77;;;-1.50;99.90;;;;;;5074172;28;20238;-75
2022/03/06 03:57:32;;;;;;;4.20;3.67;;;-1.50;99.90;;;;;;5074012;28;20181;-75
2022/03/06 03:59:57;;;;;;;2.80;1.33;;;-1.50;99.90;;;;;;5074188;28;20180;-75
2022/03/06 04:02:23;;;;;;;1.60;1.50;;;-1.50;99.90;;;;;;5073708;28;20200;-76
2022/03/06 04:04:49;;;;;;;0.80;0.80;;;-1.60;99.90;;;;;;5056124;28;20191;-75
2022/03/06 04:07:15;;;;;;;3.10;2.13;;;-1.70;99.90;;;;;;5073720;28;20176;-75
2022/03/06 04:09:41;;;;;;;0.67;0.67;;;-1.70;99.90;;;;;;5074010;28;20180;-75
2022/03/06 04:12:07;;;;;;;1.03;0.80;;;-1.80;99.90;;;;;;5073579;28;20745;-75
2022/03/06 04:14:33;;;;;;;0.10;0.10;;;-1.90;99.90;;;;;;5074122;28;20210;-75
2022/03/06 04:16:58;;;;;;;0.30;0.30;;;-1.90;99.90;;;;;;5073835;28;20715;-75
2022/03/06 04:19:24;;;;;;;0.60;0.60;;;-1.80;99.90;;;;;;5073778;28;20282;-74
2022/03/06 04:21:49;;;;;;;2.60;2.40;;;-1.80;99.90;;;;;;5073148;28;20254;-74
2022/03/06 04:24:15;;;;;;;1.10;1.10;;;-1.80;99.90;;;;;;5073824;28;20254;-74
2022/03/06 04:26:40;;;;;;;0.87;0.87;;;-1.80;99.90;;;;;;5073796;28;20721;-77
2022/03/06 04:29:06;;;;;;;1.27;1.17;;;-2.00;99.90;;;;;;5073849;28;20773;-76
2022/03/06 04:31:32;;;;;;;1.70;1.60;;;-2.00;99.90;;;;;;5073229;28;20216;-74
2022/03/06 04:33:57;;;;;;;1.50;1.47;;;-2.00;99.90;;;;;;5073443;28;20567;-74
2022/03/06 04:36:23;;;;;;;6.70;2.93;;;-2.00;99.90;;;;;;5073191;28;20173;-75
2022/03/06 04:38:49;;;;;;;0.63;0.63;;;-2.00;99.90;;;;;;5073485;28;20637;-75
2022/03/06 04:41:15;;;;;;;1.30;1.27;;;-1.90;99.90;;;;;;5073386;28;20195;-75
2022/03/06 04:43:41;;;;;;;1.47;1.43;;;-1.80;99.90;;;;;;5073292;28;20560;-75
2022/03/06 04:46:08;;;;;;;0.47;0.47;;;-1.70;99.90;;;;;;5055342;28;20187;-75
2022/03/06 04:48:33;;;;;;;1.17;1.17;;;-1.50;99.90;;;;;;5073329;28;20654;-74
2022/03/06 04:50:59;;;;;;;2.10;2.00;;;-1.40;99.90;;;;;;5072202;28;20180;-72
2022/03/06 04:53:24;;;;;;;0.20;0.20;;;-1.30;99.90;;;;;;5054998;28;20271;-72
2022/03/06 04:55:50;;;;;;;0.20;0.20;;;-1.20;99.90;;;;;;5055394;28;20284;-73
2022/03/06 04:58:16;;;;;;;0.30;0.30;;;-1.20;99.90;;;;;;5073119;28;20521;-73
2022/03/06 05:00:41;;;;;;;0.90;0.90;;;-1.30;99.90;;;;;;5072074;28;20176;-73
2022/03/06 05:03:07;;;;;;;2.37;2.27;;;-1.40;99.90;;;;;;5072764;28;20180;-74
2022/03/06 05:05:32;;;;;;;2.00;1.80;;;-1.50;99.90;;;;;;5054866;28;20238;-74
2022/03/06 05:07:58;;;;;;;3.07;2.97;;;-1.50;99.90;;;;;;5072824;28;20272;-73
2022/03/06 05:10:24;;;;;;;3.90;1.43;;;-1.50;99.90;;;;;;5072716;28;20230;-74
2022/03/06 05:12:49;;;;;;;0.40;0.40;;;-1.50;99.90;;;;;;5072273;28;20197;-72
2022/03/06 05:15:15;;;;;;;21.53;2.87;;;-1.50;99.90;;;;;;5072806;28;20265;-74
2022/03/06 05:17:41;;;;;;;0.80;0.80;;;-1.50;99.90;;;;;;5072717;28;20215;-74
2022/03/06 05:20:10;;;;;;;0.63;0.63;;;-1.50;99.90;;;;;;5054567;28;20180;-73
2022/03/06 05:22:36;;;;;;;1.27;1.23;;;-1.50;99.90;;;;;;5072065;28;20475;-74
2022/03/06 05:25:02;;;;;;;1.07;1.07;;;-1.40;99.90;;;;;;5072338;28;20180;-73
2022/03/06 05:27:28;;;;;;;1.30;1.20;;;-1.40;99.90;;;;;;5072538;28;20644;-73
2022/03/06 05:29:54;;;;;;;0.87;0.87;;;-1.40;99.90;;;;;;5072350;28;20180;-73
2022/03/06 05:32:19;;;;;;;1.17;1.17;;;-1.40;99.90;;;;;;5071990;28;20218;-73
2022/03/06 05:34:45;;;;;;;22.27;1.43;;;-1.30;99.90;;;;;;5072183;28;20679;-74
2022/03/06 05:37:11;;;;;;;3.43;3.27;;;-1.40;99.90;;;;;;5072407;28;20517;-74
2022/03/06 05:39:36;;;;;;;0.50;0.50;;;-1.50;99.90;;;;;;5072499;28;20184;-74
2022/03/06 05:42:02;;;;;;;0.60;0.60;;;-1.60;99.90;;;;;;5071730;28;20197;-73
2022/03/06 05:44:28;;;;;;;0.73;0.73;;;-1.70;99.90;;;;;;5072963;28;20183;-74
2022/03/06 05:46:54;;;;;;;2.10;1.43;;;-1.70;99.90;;;;;;5072415;28;20586;-74
2022/03/06 05:49:19;;;;;;;0.70;0.70;;;-1.70;99.90;;;;;;5071848;28;20605;-73
2022/03/06 05:51:45;;;;;;;0.20;0.20;;;-1.80;99.90;;;;;;5071437;28;20293;-72
2022/03/06 05:54:11;;;;;;;3.20;1.60;;;-1.80;99.90;;;;;;5072554;28;20683;-73
2022/03/06 05:56:39;;;;;;;2.20;1.73;;;-1.80;99.90;;;;;;5076174;28;20675;-73
2022/03/06 05:59:05;;;;;;;0.80;0.80;;;-1.70;99.90;;;;;;5073058;28;20509;-75
2022/03/06 06:01:31;;;;;;;1.13;1.13;;;-1.60;99.90;;;;;;5072329;28;20251;-74
2022/03/06 06:03:57;;;;;;;0.33;0.33;;;-1.70;99.90;;;;;;5072084;28;20204;-74
2022/03/06 06:06:24;;;;;;;0.17;0.17;;;-1.60;99.90;;;;;;5072379;28;20602;-74
2022/03/06 06:08:50;;;;;;;1.17;0.90;;;-1.50;99.90;;;;;;5054614;28;20187;-74
2022/03/06 06:11:15;;;;;;;0.83;0.83;;;-1.50;99.90;;;;;;5054118;28;20208;-76
2022/03/06 06:13:41;;;;;;;4.23;2.60;;;-1.50;99.90;;;;;;5071657;28;20740;-74
2022/03/06 06:16:06;;;;;;;1.40;1.40;;;-1.50;99.90;;;;;;5071592;28;20575;-73
2022/03/06 06:18:32;;;;;;;1.40;1.33;;;-1.60;99.90;;;;;;5053402;28;20263;-75
2022/03/06 06:20:58;;;;;;;1.20;1.20;;;-1.60;99.90;;;;;;5071570;28;20180;-74
2022/03/06 06:23:23;;;;;;;1.90;1.80;;;-1.60;99.90;;;;;;5071263;28;20257;-74
2022/03/06 06:25:49;;;;;;;1.37;1.27;;;-1.70;99.90;;;;;;5071817;28;20234;-74
2022/03/06 06:28:15;;;;;;;0.47;0.47;;;-1.70;99.90;;;;;;5054623;28;20181;-73
2022/03/06 06:30:41;;;;;;;7.30;3.50;;;-1.60;99.90;;;;;;5071539;28;20176;-74
2022/03/06 06:33:07;;;;;;;1.40;1.40;;;-1.50;99.90;;;;;;5071682;28;20245;-70
2022/03/06 06:35:34;;;;;;;6.20;1.70;;;-1.30;99.90;;;;;;5054402;28;20719;-75
2022/03/06 06:38:00;;;;;;;0.60;0.60;;;-1.20;99.90;;;;;;5071281;28;20203;-74
2022/03/06 06:40:25;;;;;;;0.40;0.40;;;-1.20;99.90;;;;;;5071465;28;20172;-73
2022/03/06 06:42:51;;;;;;;4.47;4.03;;;-1.30;99.90;;;;;;5053105;28;20192;-71
2022/03/06 06:45:17;;;;;;;1.60;1.50;;;-1.40;99.90;;;;;;5070901;28;20271;-71
2022/03/06 06:47:42;;;;;;;2.37;2.20;;;-1.40;99.90;;;;;;5070669;28;20184;-72
2022/03/06 06:50:08;;;;;;;2.03;1.03;;;-1.40;99.90;;;;;;5072129;28;20177;-74
2022/03/06 06:52:34;;;;;;;2.53;2.43;;;-1.40;99.90;;;;;;5073103;28;20279;-72
2022/03/06 06:54:59;;;;;;;3.50;3.17;;;-1.20;99.90;;;;;;5072667;28;20196;-72
2022/03/06 06:57:25;;;;;;;1.37;1.37;;;-1.10;99.90;;;;;;5071532;28;20181;-74
2022/03/06 06:59:50;;;;;;;5.00;4.63;;;-1.00;99.90;;;;;;5071203;28;20179;-73
2022/03/06 07:02:16;;;;;;;2.03;1.93;;;-0.90;99.90;;;;;;5070850;28;20673;-73
2022/03/06 07:04:41;;;;;;;5.90;1.00;;;-0.70;99.90;;;;;;5071085;28;20168;-72
2022/03/06 07:07:07;;;;;;;1.50;0.93;;;-0.60;99.90;;;;;;5070307;28;20181;-73
2022/03/06 07:09:33;;;;;;;0.57;0.57;;;-0.50;99.90;;;;;;5070861;28;20184;-72
2022/03/06 07:11:58;;;;;;;2.70;2.50;;;-0.40;99.90;;;;;;5070731;28;20231;-72
2022/03/06 07:14:24;;;;;;;1.00;1.00;;;-0.30;99.90;;;;;;5072069;28;20207;-72
2022/03/06 07:16:49;;;;;;;4.03;2.53;;;-0.10;99.90;;;;;;5074258;28;20183;-72
2022/03/06 07:19:16;;;;;;;2.17;1.27;;;-0.10;99.90;;;;;;5074865;28;20509;-72
2022/03/06 07:21:41;;;;;;;2.37;1.30;;;-0.10;99.90;;;;;;5074354;28;20196;-75
2022/03/06 07:24:07;;;;;;;1.30;1.30;;;-0.10;99.90;;;;;;5074934;28;20180;-73
2022/03/06 07:26:33;;;;;;;0.67;0.67;;;0.00;99.90;;;;;;5056875;28;20239;-74
2022/03/06 07:28:58;;;;;;;1.57;1.50;;;-0.10;99.90;;;;;;5075140;28;20204;-74
2022/03/06 07:31:24;;;;;;;2.30;2.10;;;-0.20;99.90;;;;;;5098470;22;20212;-73
2022/03/06 07:33:50;;;;;;;0.23;0.23;;;-0.20;99.90;;;;;;5094375;28;20212;-73
2022/03/06 07:36:15;;;;;;;1.97;1.93;;;-0.10;99.90;;;;;;5094189;28;20579;-73
2022/03/06 07:38:41;;;;;;;2.03;1.40;;;-0.10;99.90;;;;;;5094945;28;20267;-74
2022/03/06 07:41:06;;;;;;;2.87;2.63;;;-0.10;99.90;;;;;;5095128;28;20224;-74
2022/03/06 07:43:32;;;;;;;0.75;0.75;;;-0.10;99.90;;;;;;5094042;28;20398;-74
2022/03/06 07:45:57;;;;;;;2.23;2.13;;;0.10;99.90;;;;;;5094144;28;20191;-73
2022/03/06 07:48:23;;;;;;;1.23;1.23;;;0.20;99.90;;;;;;5094720;28;20175;-74
2022/03/06 07:50:48;;;;;;;5.93;1.60;;;0.40;99.90;;;;;;5076433;28;20182;-75
2022/03/06 07:53:14;;;;;;;2.30;2.20;;;0.60;99.90;;;;;;5094332;28;20197;-73
2022/03/06 07:55:40;;;;;;;2.23;1.97;;;0.70;99.90;;;;;;5094838;28;20218;-74
2022/03/06 07:58:05;;;;;;;0.77;0.77;;;0.90;99.90;;;;;;5094401;28;20180;-73
2022/03/06 08:00:31;;;;;;;1.07;1.07;;;1.10;99.90;;;;;;5094235;28;20176;-75
2022/03/06 08:02:56;;;;;;;2.80;2.60;;;1.20;99.90;;;;;;5093912;28;20658;-75
2022/03/06 08:05:23;;;;;;;1.90;1.80;;;1.30;99.90;;;;;;5094374;28;20175;-75
2022/03/06 08:07:48;;;;;;;1.33;1.33;;;1.50;99.90;;;;;;5077572;28;20173;-74
2022/03/06 08:10:14;;;;;;;3.20;1.53;;;1.60;99.90;;;;;;5078435;28;20538;-74
2022/03/06 08:12:40;;;;;;;4.23;2.67;;;1.80;99.90;;;;;;5075484;28;20772;-73
2022/03/06 08:15:08;;;;;;;1.40;1.30;;;1.80;99.90;;;;;;5075771;28;20640;-74
2022/03/06 08:17:34;;;;;;;2.03;1.83;;;1.90;99.90;;;;;;5094329;28;20188;-74
2022/03/06 08:19:59;;;;;;;2.23;2.13;;;2.00;99.90;;;;;;5093941;28;20223;-74
2022/03/06 08:22:25;;;;;;;3.23;2.73;;;2.20;99.90;;;;;;5093596;28;20596;-74
2022/03/06 08:24:51;;;;;;;1.13;1.13;;;2.40;99.90;;;;;;5093757;28;20215;-73
2022/03/06 08:27:17;;;;;;;2.00;1.90;;;2.70;99.90;;;;;;5092532;28;20201;-74
2022/03/06 08:29:43;;;;;;;2.10;2.00;;;2.70;99.90;;;;;;5094043;28;20664;-74
2022/03/06 08:32:09;;;;;;;1.00;0.97;;;2.60;99.90;;;;;;5093321;28;20222;-73
2022/03/06 08:34:34;;;;;;;1.33;1.33;;;2.60;99.90;;;;;;5093615;28;20294;-74
2022/03/06 08:37:00;;;;;;;1.50;0.87;;;2.60;99.90;;;;;;5093934;28;20182;-72
2022/03/06 08:39:25;;;;;;;4.93;4.60;;;2.80;99.90;;;;;;5075438;28;20184;-74
2022/03/06 08:41:51;;;;;;;0.97;0.97;;;2.80;99.90;;;;;;5074899;28;20285;-74
2022/03/06 08:44:17;;;;;;;4.03;3.23;;;2.90;99.90;;;;;;5093733;28;20280;-82
2022/03/06 08:46:42;;;;;;;1.23;1.23;;;2.90;99.90;;;;;;5093467;28;20172;-77
2022/03/06 08:49:08;;;;;;;1.60;1.57;;;2.70;99.90;;;;;;5093433;28;20190;-76
2022/03/06 08:51:35;;;;;;;7.80;4.10;;;2.70;99.90;;;;;;5093014;28;20199;-76
2022/03/06 08:54:01;;;;;;;1.43;1.40;;;2.80;99.90;;;;;;5093415;28;20509;-76
2022/03/06 08:56:26;;;;;;;2.50;1.40;;;2.80;99.90;;;;;;5093081;28;20210;-76
2022/03/06 08:58:52;;;;;;;2.07;1.97;;;2.90;99.90;;;;;;5075069;28;20178;-76
2022/03/06 09:01:18;;;;;;;3.20;2.97;;;2.80;99.90;;;;;;5093025;28;20182;-76
2022/03/06 09:03:43;;;;;;;5.53;3.53;;;2.90;99.90;;;;;;5093089;28;20190;-77
2022/03/06 09:06:09;;;;;;;0.80;0.80;;;3.00;99.90;;;;;;5093181;28;20203;-77
2022/03/06 09:08:34;;;;;;;3.50;3.10;;;3.30;99.90;;;;;;5075037;28;20177;-76
2022/03/06 09:11:00;;;;;;;1.93;0.90;;;3.50;99.90;;;;;;5074881;28;20255;-76
2022/03/06 09:13:26;;;;;;;2.43;2.20;;;3.40;99.90;;;;;;5092573;28;20210;-76
2022/03/06 09:15:51;;;;;;;2.07;1.97;;;3.50;99.90;;;;;;5074750;28;20646;-77
2022/03/06 09:18:17;;;;;;;6.10;2.83;;;3.80;99.90;;;;;;5074780;28;20586;-77
2022/03/06 09:20:43;;;;;;;7.57;3.60;;;3.90;99.90;;;;;;5092888;28;20168;-76
2022/03/06 09:23:09;;;;;;;10.37;2.33;;;4.30;99.90;;;;;;5092432;28;20282;-76
2022/03/06 09:25:35;;;;;;;1.57;1.47;;;4.30;99.90;;;;;;5092711;28;20187;-77
2022/03/06 09:28:02;;;;;;;1.30;1.30;;;4.20;99.90;;;;;;5092833;28;20604;-77
2022/03/06 09:30:28;;;;;;;1.77;1.47;;;4.40;99.90;;;;;;5092611;28;20210;-76
2022/03/06 09:32:53;;;;;;;1.30;1.30;;;4.40;99.90;;;;;;5092206;28;20215;-77
2022/03/06 09:35:19;;;;;;;2.70;2.17;;;4.20;99.90;;;;;;5092425;28;20199;-76
2022/03/06 09:37:44;;;;;;;1.47;1.40;;;4.10;99.90;;;;;;5092032;28;20170;-74
2022/03/06 09:40:10;;;;;;;4.47;4.07;;;4.20;99.90;;;;;;5092251;28;20168;-76
2022/03/06 09:42:36;;;;;;;2.80;2.60;;;4.00;99.90;;;;;;5091971;28;20204;-75
2022/03/06 09:45:04;;;;;;;2.10;2.00;;;4.20;99.90;;;;;;5092419;28;20218;-76
2022/03/06 09:47:30;;;;;;;4.03;1.97;;;4.30;99.90;;;;;;5092334;28;20232;-76
2022/03/06 09:49:56;;;;;;;1.60;1.50;;;4.30;99.90;;;;;;5092452;28;20183;-76
2022/03/06 09:52:21;;;;;;;3.87;3.67;;;4.70;99.90;;;;;;5091813;28;20302;-76
2022/03/06 09:54:47;;;;;;;5.90;4.53;;;5.00;99.90;;;;;;5092077;28;20245;-76
2022/03/06 09:57:18;;;;;;;5.77;1.80;;;5.30;99.90;;;;;;5073277;28;20723;-76
2022/03/06 09:59:44;;;;;;;1.27;1.23;;;5.30;99.90;;;;;;5092129;28;20183;-76
2022/03/06 10:02:11;;;;;;;0.97;0.97;;;5.50;99.90;;;;;;5076283;28;20278;-77
2022/03/06 10:04:37;;;;;;;3.23;3.03;;;5.60;99.90;;;;;;5091813;28;20176;-76
2022/03/06 10:07:06;;;;;;;2.20;2.00;;;5.70;99.90;;;;;;5073426;28;20550;-76
2022/03/06 10:09:54;;;;;;;3.90;2.80;;;5.90;99.90;;;;;;5073751;28;20274;-76
2022/03/06 10:12:29;;;;;;;2.77;2.00;;;5.80;99.90;;;;;;5091638;28;20198;-77
2022/03/06 10:15:00;;;;;;;3.60;2.70;;;6.10;99.90;;;;;;5091642;28;20606;-76
2022/03/06 10:17:28;;;;;;;10.97;4.20;;;6.00;99.90;;;;;;5092132;28;20183;-76
2022/03/06 10:20:05;;;;;;;4.60;4.20;;;5.50;99.90;;;;;;5091727;28;20199;-76
2022/03/06 10:22:33;;;;;;;2.00;1.90;;;5.50;99.90;;;;;;5091249;28;20196;-76
2022/03/06 10:25:05;;;;;;;3.23;2.67;;;5.80;99.90;;;;;;5073617;28;20183;-76
2022/03/06 10:27:46;;;;;;;3.10;2.27;;;6.30;99.90;;;;;;5091544;28;20180;-76
2022/03/06 10:30:31;;;;;;;1.17;1.13;;;6.60;99.90;;;;;;5091538;28;20198;-77
2022/03/06 10:33:00;;;;;;;1.07;1.03;;;6.80;99.90;;;;;;5090687;28;20223;-76
2022/03/06 10:35:37;;;;;;;4.13;3.13;;;6.70;99.90;;;;;;5091574;28;20203;-76
2022/03/06 10:38:21;;;;;;;1.30;0.73;;;6.40;99.90;;;;;;5091517;28;20220;-76
2022/03/06 10:40:48;;;;;;;6.37;2.97;;;6.80;99.90;;;;;;5091214;28;20270;-77
2022/03/06 10:43:22;;;;;;;4.87;1.93;;;6.90;99.90;;;;;;5091006;28;20203;-76
2022/03/06 10:45:49;;;;;;;3.27;2.40;;;7.40;99.90;;;;;;5091255;28;20535;-76
2022/03/06 10:48:16;;;;;;;3.70;3.20;;;7.60;99.90;;;;;;5091552;28;20336;-76
2022/03/06 10:50:41;;;;;;;1.07;1.07;;;7.80;99.90;;;;;;5072666;28;20233;-76
2022/03/06 10:53:24;;;;;;;9.27;4.13;;;8.00;99.90;;;;;;5090973;28;20282;-77
2022/03/06 10:55:51;;;;;;;2.97;2.77;;;8.20;99.90;;;;;;5091126;28;20203;-76
2022/03/06 10:58:21;;;;;;;4.00;3.27;;;8.10;99.90;;;;;;5091275;28;20191;-76
2022/03/06 11:00:47;;;;;;;4.13;2.50;;;8.10;99.90;;;;;;5086553;28;20190;-76
2022/03/06 11:03:14;;;;;;;1.80;1.63;;;7.90;99.90;;;;;;5091091;28;20226;-76
2022/03/06 11:05:45;;;;;;;2.33;2.13;;;8.00;99.90;;;;;;5091228;28;20183;-77
2022/03/06 11:08:16;;;;;;;15.73;3.33;;;8.00;99.90;;;;;;5091179;28;20709;-77
2022/03/06 11:10:45;;;;;;;7.33;4.23;;;8.00;99.90;;;;;;5090997;28;20183;-77
2022/03/06 11:13:14;;;;;;;5.33;2.37;;;8.60;99.90;;;;;;5090783;28;20329;-77
2022/03/06 11:15:41;;;;;;;6.00;2.50;;;8.80;99.90;;;;;;5091323;28;20211;-77
2022/03/06 11:18:07;;;;;;;2.60;2.40;;;8.90;99.90;;;;;;5091002;28;20189;-76
2022/03/06 11:20:34;;;;;;;3.17;2.97;;;9.00;99.90;;;;;;5091223;28;20254;-76
2022/03/06 11:23:18;;;;;;;2.87;1.33;;;8.70;99.90;;;;;;5090578;28;20674;-77
2022/03/06 11:26:01;;;;;;;9.13;4.33;;;8.40;99.90;;;;;;5072934;28;20184;-77
2022/03/06 11:28:51;;;;;;;5.07;1.80;;;8.70;99.90;;;;;;5091100;28;20179;-76
2022/03/06 11:31:17;;;;;;;2.00;1.90;;;8.20;99.90;;;;;;5090564;28;20187;-75
2022/03/06 11:33:55;;;;;;;3.13;2.20;;;8.50;99.90;;;;;;5090988;28;20190;-77
2022/03/06 11:36:23;;;;;;;2.70;2.53;;;8.80;99.90;;;;;;5091666;28;20224;-75
2022/03/06 11:38:51;;;;;;;2.73;2.43;;;9.30;99.90;;;;;;5091425;28;20215;-75
2022/03/06 11:41:17;;;;;;;5.93;5.00;;;10.60;99.90;;;;;;5088605;28;20520;-75
2022/03/06 11:43:47;;;;;;;5.70;4.93;;;9.90;99.90;;;;;;5072468;28;20172;-77
2022/03/06 11:46:22;;;;;;;2.67;2.47;;;10.80;99.90;;;;;;5090202;28;20184;-76
2022/03/06 11:48:48;;;;;;;2.23;2.13;;;11.50;99.90;;;;;;5088059;28;20171;-74
2022/03/06 11:51:22;;;;;;;4.30;2.43;;;11.30;99.90;;;;;;5072208;28;20176;-77
2022/03/06 11:54:06;;;;;;;3.97;3.47;;;11.50;99.90;;;;;;5071534;28;20301;-77
2022/03/06 11:56:34;;;;;;;3.77;2.07;;;11.70;99.90;;;;;;5082762;28;20176;-77
2022/03/06 11:59:19;;;;;;;3.37;3.03;;;11.90;99.90;;;;;;5073103;28;20658;-77
2022/03/06 12:01:54;;;;;;;4.70;4.20;;;12.10;99.90;;;;;;5081676;28;20620;-75
2022/03/06 12:04:26;;;;;;;3.43;2.47;;;12.90;99.90;;;;;;5094002;28;20176;-77
2022/03/06 12:06:56;;;;;;;2.33;2.23;;;12.30;99.90;;;;;;5093999;28;20192;-77
2022/03/06 12:09:27;;;;;;;3.73;2.77;;;11.60;99.90;;;;;;5094037;28;20683;-77
2022/03/06 12:11:57;;;;;;;6.67;2.87;;;13.10;98.70;;;;;;5093575;28;20217;-77
2022/03/06 12:14:24;;;;;;;4.27;3.87;;;13.80;99.60;;;;;;5093561;28;20667;-75
2022/03/06 12:19:32;;;;;;;15.13;4.03;;;12.30;98.20;;;;;;5094834;28;20334;-77
2022/03/06 12:22:19;;;;;;;3.47;3.17;;;12.90;98.60;;;;;;5095025;28;20313;-77
2022/03/06 12:24:47;;;;;;;5.07;3.83;;;12.80;96.40;;;;;;5076773;28;20175;-77
2022/03/06 12:27:20;;;;;;;3.90;3.47;;;12.80;97.70;;;;;;5091947;28;20198;-76
2022/03/06 12:29:46;;;;;;;3.83;3.53;;;12.00;98.00;;;;;;5094472;28;20221;-76
2022/03/06 12:32:31;;;;;;;7.37;5.57;;;11.50;98.00;;;;;;5093833;28;20294;-76
2022/03/06 12:35:05;;;;;;;3.13;2.80;;;12.50;98.70;;;;;;5093649;28;20233;-76
2022/03/06 12:37:32;;;;;;;2.83;2.67;;;14.10;93.70;;;;;;5093528;28;20205;-77
2022/03/06 12:39:58;;;;;;;9.97;5.43;;;13.70;94.00;;;;;;5093841;28;20172;-77
2022/03/06 12:42:30;;;;;;;6.03;3.43;;;11.90;95.30;;;;;;5093136;28;20204;-76
2022/03/06 12:45:00;;;;;;;9.80;4.27;;;12.00;97.20;;;;;;5093649;28;20184;-76
2022/03/06 12:47:29;;;;;;;6.63;2.67;;;14.40;94.20;;;;;;5093580;28;20176;-76
2022/03/06 12:49:56;;;;;;;8.50;4.37;;;13.30;94.10;;;;;;5093748;28;20184;-76
2022/03/06 12:52:25;;;;;;;4.13;2.70;;;13.10;95.50;;;;;;5093274;28;20208;-76